Terminal Aerodrome Forecast
Issued by NWS Cleveland, OH

Home | Current Version | Previous Version | Graphics & Text | Print | Product List | Glossary On
Versions: 1 2 3 4 5 6 7 8 9 10 11 12 13 14 15
000
FTUS41 KCLE 311736
TAFTOL
TAF
KTOL 311736Z 3118/0118 04015G25KT P6SM VCSH SCT008 OVC012
      TEMPO 3118/3120 3SM -SHRA BKN008 OVC012
     FM312000 04015G25KT P6SM SCT008 OVC015
     FM010400 01008KT P6SM OVC015=

USA.gov is the U.S. government's official web portal to all federal, state and local government web resources and services.